Address 0x4a4e859565d9b563afc8e63641542455cff0dfd2

Txn Hash Method
Block
From
To
Value [Txn Fee]
0x322f9697f6f1a5a32601d819f2caba0c6407a452fcf00ae733a1e001109211dcTransfer231485592022-12-03 5:27:416 mins ago0xb5cd60f2c771b6b528cf0ae296b1715d33888378 IN 0x4a4e859565d9b563afc8e63641542455cff0dfd277.9987085 AVAX0.00052525
0xc1777f9b996719c02ac43cc148625f8234e3622469425abd8f27353196308f57Transfer231484432022-12-03 5:23:4410 mins ago0x232b1b01b97cf6c2fe9eb44919801846cba48c25 IN 0x4a4e859565d9b563afc8e63641542455cff0dfd25.328860640266469 AVAX0.00052525
0xa39026dcfd80e50413defa3f179665e677a7b7d99217fe63ae6fd2dd00a6cc79Transfer231482842022-12-03 5:18:1816 mins ago0x4a4e859565d9b563afc8e63641542455cff0dfd2OUT0x65ac719233cc193616b493479a2e53d90d1a9f2d1.07889032 AVAX0.00052525
0xafde16db326a82d019a8be462ac95616fdad83cd5371ffd7d6c9587995bb347dTransfer231482042022-12-03 5:15:3818 mins ago0xcde82e3c81798517e2605564498e5b1367a04ef1 IN 0x4a4e859565d9b563afc8e63641542455cff0dfd28.86697112 AVAX0.00052525
0xf827209e049aa7b5367c4e197824bb7d8e103571a553ad687ef0fc6da2f7523dTransfer231473882022-12-03 4:47:3646 mins ago0xd45a9b9de5116aa17261bc76887d872093a52d30 IN 0x4a4e859565d9b563afc8e63641542455cff0dfd27.9994225 AVAX0.00052525
0x67aac7bafb2f689788f98bcf6664a5b42be7afdb0e32e32b4dddb0bbf23f6aa0Transfer231468482022-12-03 4:29:081 hr 5 mins ago0x4a4e859565d9b563afc8e63641542455cff0dfd2OUT0x6f2c63082110512cdc996167495f0afe65c7ce8412.0306799 AVAX0.00052525
0x77834c03e19a1443d6afb0a8d819c103445130eba3980c5e4a1e996fbb72b211Transfer231459592022-12-03 3:58:361 hr 35 mins ago0x0ea7277b58ec758ef1f3a2c513d5a21de63b1c8e IN 0x4a4e859565d9b563afc8e63641542455cff0dfd288.485845 AVAX0.00052525
0xfbf988fb282cc008cd0a7e34d345c3d8c2f072eeb665b4d80764db5a2cc9319cTransfer231459332022-12-03 3:57:441 hr 36 mins ago0x5c45a83819a0540cad833e7d3db27c610da1624f IN 0x4a4e859565d9b563afc8e63641542455cff0dfd21.8194225 AVAX0.00052525
0xeb7e5c316b0a7a862d640e1b49d0e6e685ec07c6ec31d0c5167b444b6e1e4c4cTransfer231457522022-12-03 3:51:351 hr 42 mins ago0x6e00dad64b7eaf47ec909db511dd0a3d5921bea2 IN 0x4a4e859565d9b563afc8e63641542455cff0dfd23.499475 AVAX0.00052525
0xda624b3a61aa48b34a98a64a88871b1bfb0f4b0ca4c7ce9566460a15e1779416Transfer231457252022-12-03 3:50:381 hr 43 mins ago0x4a4e859565d9b563afc8e63641542455cff0dfd2OUT0x80a703fd1618972f1bbfa2f7479e042d47d53ed323.61200357 AVAX0.00052525
0x19273e115ed4558b95fc33d9af5419d01361498f557e770e2abfcf55df406fb6Transfer231455002022-12-03 3:42:401 hr 51 mins ago0x8b17a2de3c6e7f17c009b3a06701e5005210ef54 IN 0x4a4e859565d9b563afc8e63641542455cff0dfd22.999475 AVAX0.00052525
0xb533c50c13c3b8bf24abd6c2b0f1a53b0f0138469fe053a7162bcb36809cdd4fTransfer231453612022-12-03 3:37:471 hr 56 mins ago0x4a4e859565d9b563afc8e63641542455cff0dfd2OUT0x6a715d4239b442664413e3cf2154922953563b223.55423917 AVAX0.00052525
0xfff1085b982e420c3d4d39f46eee90dcc6426bb1e943e7143de41f68a84e6812Transfer231453342022-12-03 3:36:531 hr 57 mins ago0x4a4e859565d9b563afc8e63641542455cff0dfd2OUT0x89c279046fe41f8ddb87f1887e87e621f2d6450249.53894173 AVAX0.00052525
0x391bbd38f0e50bee543ed8a8f3cbbdbcf23a41c562beafca6c2295250efe33f7Transfer231445892022-12-03 3:11:322 hrs 22 mins ago0x4a4e859565d9b563afc8e63641542455cff0dfd2OUT0x88223ebe86a893bb9c7aad1fa106ef981b221bb622.18114603 AVAX0.00052525
0x3ff389c22b2dc903d1be684bebf007ecb255079ab1e26cc969388b66b9077761Transfer231443842022-12-03 3:04:262 hrs 29 mins ago0x4a4e859565d9b563afc8e63641542455cff0dfd2OUT0x874892484f24be9ad692a7bf84d99303061e38721.72580257 AVAX0.00052525
0x55c76e9a2dc5e8f5a11e6eac2f3bdaf4580e9d7c54d03e36abe9ebe8a5b08446Transfer231442792022-12-03 3:00:512 hrs 33 mins ago0x4a4e859565d9b563afc8e63641542455cff0dfd2OUT0xc54b653250a806184158dacc1a39bc011ea97cf052.39012571 AVAX0.00052525
0xff405562a5850e6c076c00aaa7252162eb47240b1971dae5765c04a0e7c08f43Transfer231440182022-12-03 2:51:422 hrs 42 mins ago0xa6e464b02b16f76a8c3aca938efd8c6e204f69df IN 0x4a4e859565d9b563afc8e63641542455cff0dfd25.478575 AVAX0.00052525
0x1d5af9d4640ff1f5992d971cba3b40ff329d0b343657070b6f45714212f865a7Transfer231440182022-12-03 2:51:422 hrs 42 mins ago0xeb1bfe45232ecf1a695c29c374e9f310d81d8b84 IN 0x4a4e859565d9b563afc8e63641542455cff0dfd236.799475 AVAX0.00052525
0x17acdb45df98b5db6f090be365f3f9fdb7bdf698c59772add5c80d0a10697b65Transfer231437342022-12-03 2:41:472 hrs 52 mins ago0x3481aac48594c9ff061614d23955ffa06a106d54 IN 0x4a4e859565d9b563afc8e63641542455cff0dfd21.4514225 AVAX0.00052525
0x22c55366117fdad5f11a546c3e461e282a0e35264d78b3af4c412701e9aa1322Transfer231434992022-12-03 2:33:413 hrs ago0x95d65f94b997a59600482a3149a998753aac2b76 IN 0x4a4e859565d9b563afc8e63641542455cff0dfd20.999475 AVAX0.00052525
0x28c6a3cbdd65e332e5de9687d1916ca2861699d04923c152fe43068c82064835Transfer231424522022-12-03 1:57:473 hrs 36 mins ago0x2a4c0b10ec87dcfed0b0c7858814e98ea2d48e3e IN 0x4a4e859565d9b563afc8e63641542455cff0dfd21.199475 AVAX0.00052525
0xfa1bfb97f8e21bc0121a1a7b59089dc92224c359210b3797778996fb4ea6f73dTransfer231423882022-12-03 1:55:373 hrs 38 mins ago0x73fa51b07e1dbce57dd4c0c0a2abc14fabf4b664 IN 0x4a4e859565d9b563afc8e63641542455cff0dfd22.9994225 AVAX0.00052525
0x6964974cb99c1be627ebc7cb3672a0f009ab425a82e47d54bea5b884a3952848Transfer231423302022-12-03 1:53:413 hrs 40 mins ago0xce372b0d9e755759b2511a3ed92af9d0d84bb808 IN 0x4a4e859565d9b563afc8e63641542455cff0dfd273.0770225 AVAX0.00052525
0xe1b95acd68f44731dd65f00420972765329da8a031a551d879116a729dcfd776Transfer231423142022-12-03 1:53:083 hrs 41 mins ago0x4a4e859565d9b563afc8e63641542455cff0dfd2OUT0x7e3f498bd1f5b25784345443177f2c0a9e50d082126.96351395 AVAX0.00052525
0xc4fe2eb17fe2e417e66872889811acc819649a32064949081fe75a86264c6325Transfer231420092022-12-03 1:42:373 hrs 51 mins ago0xc9dc71034970966a3b54d83e33cd6cd9ad81ef7c IN 0x4a4e859565d9b563afc8e63641542455cff0dfd299.9994225 AVAX0.00052525
[ Download CSV Export 
Parent Txn Hash Block From To Value
Loading

Contract Name:
0

Compiler Version
0

Optimization Enabled:
0

Other Settings:
-NA-
Block Transaction Gas Used Reward
Age Block Fee Address BC Fee Address Voting Power Jailed Incoming
Block Uncle Number Difficulty Gas Used Reward
Loading
Make sure to use the "Vote Down" button for any spammy posts, and the "Vote Up" for interesting conversations.